sensor_id;sensor_type;location;lat;lon;timestamp;P1;durP1;ratioP1;P2;durP2;ratioP2
47659;SDS011;33403;43.608;1.458;2022-12-07T00:02:10;31.20;;;19.08;;
47659;SDS011;33403;43.608;1.458;2022-12-07T00:04:36;50.67;;;27.88;;
47659;SDS011;33403;43.608;1.458;2022-12-07T00:07:02;59.60;;;31.07;;
47659;SDS011;33403;43.608;1.458;2022-12-07T00:09:29;41.30;;;23.33;;
47659;SDS011;33403;43.608;1.458;2022-12-07T00:11:55;34.50;;;20.73;;
47659;SDS011;33403;43.608;1.458;2022-12-07T00:14:21;27.83;;;18.25;;
47659;SDS011;33403;43.608;1.458;2022-12-07T00:16:48;28.17;;;17.23;;
47659;SDS011;33403;43.608;1.458;2022-12-07T00:19:16;27.10;;;17.07;;
47659;SDS011;33403;43.608;1.458;2022-12-07T00:21:42;24.63;;;16.30;;
47659;SDS011;33403;43.608;1.458;2022-12-07T00:24:09;25.35;;;16.25;;
47659;SDS011;33403;43.608;1.458;2022-12-07T00:26:36;26.97;;;16.47;;
47659;SDS011;33403;43.608;1.458;2022-12-07T00:29:05;22.85;;;15.50;;
47659;SDS011;33403;43.608;1.458;2022-12-07T00:31:35;24.52;;;15.82;;
47659;SDS011;33403;43.608;1.458;2022-12-07T00:34:04;22.33;;;14.85;;
47659;SDS011;33403;43.608;1.458;2022-12-07T00:36:30;23.23;;;15.67;;
47659;SDS011;33403;43.608;1.458;2022-12-07T00:38:57;23.02;;;15.25;;
47659;SDS011;33403;43.608;1.458;2022-12-07T00:41:24;24.88;;;15.57;;
47659;SDS011;33403;43.608;1.458;2022-12-07T00:43:50;25.15;;;16.00;;
47659;SDS011;33403;43.608;1.458;2022-12-07T00:46:17;25.75;;;15.80;;
47659;SDS011;33403;43.608;1.458;2022-12-07T00:48:43;22.95;;;15.27;;
47659;SDS011;33403;43.608;1.458;2022-12-07T00:51:10;25.02;;;15.77;;
47659;SDS011;33403;43.608;1.458;2022-12-07T00:53:37;22.05;;;14.80;;
47659;SDS011;33403;43.608;1.458;2022-12-07T00:56:11;23.07;;;15.20;;
47659;SDS011;33403;43.608;1.458;2022-12-07T00:58:37;21.30;;;15.00;;
47659;SDS011;33403;43.608;1.458;2022-12-07T01:01:04;22.17;;;14.82;;
47659;SDS011;33403;43.608;1.458;2022-12-07T01:03:31;21.17;;;14.40;;
47659;SDS011;33403;43.608;1.458;2022-12-07T01:05:57;20.90;;;14.43;;
47659;SDS011;33403;43.608;1.458;2022-12-07T01:08:23;21.63;;;14.63;;
47659;SDS011;33403;43.608;1.458;2022-12-07T01:10:56;20.03;;;13.83;;
47659;SDS011;33403;43.608;1.458;2022-12-07T01:13:22;20.33;;;14.50;;
47659;SDS011;33403;43.608;1.458;2022-12-07T01:15:48;21.05;;;14.52;;
47659;SDS011;33403;43.608;1.458;2022-12-07T01:18:14;18.75;;;13.07;;
47659;SDS011;33403;43.608;1.458;2022-12-07T01:20:40;19.80;;;13.98;;
47659;SDS011;33403;43.608;1.458;2022-12-07T01:23:06;21.58;;;13.90;;
47659;SDS011;33403;43.608;1.458;2022-12-07T01:25:32;21.45;;;14.43;;
47659;SDS011;33403;43.608;1.458;2022-12-07T01:27:58;21.40;;;14.40;;
47659;SDS011;33403;43.608;1.458;2022-12-07T01:30:24;20.67;;;13.93;;
47659;SDS011;33403;43.608;1.458;2022-12-07T01:32:51;21.17;;;14.23;;
47659;SDS011;33403;43.608;1.458;2022-12-07T01:35:17;22.40;;;14.02;;
47659;SDS011;33403;43.608;1.458;2022-12-07T01:37:43;19.30;;;13.82;;
47659;SDS011;33403;43.608;1.458;2022-12-07T01:40:09;21.75;;;15.10;;
47659;SDS011;33403;43.608;1.458;2022-12-07T01:42:36;20.23;;;13.98;;
47659;SDS011;33403;43.608;1.458;2022-12-07T01:47:44;21.02;;;14.27;;
47659;SDS011;33403;43.608;1.458;2022-12-07T01:50:11;20.67;;;13.67;;
47659;SDS011;33403;43.608;1.458;2022-12-07T01:52:38;21.08;;;14.85;;
47659;SDS011;33403;43.608;1.458;2022-12-07T01:55:10;21.50;;;14.90;;
47659;SDS011;33403;43.608;1.458;2022-12-07T01:57:40;23.38;;;15.65;;
47659;SDS011;33403;43.608;1.458;2022-12-07T02:00:06;23.97;;;15.90;;
47659;SDS011;33403;43.608;1.458;2022-12-07T02:02:41;22.25;;;15.25;;
47659;SDS011;33403;43.608;1.458;2022-12-07T02:05:09;24.87;;;16.43;;
47659;SDS011;33403;43.608;1.458;2022-12-07T02:07:36;26.17;;;16.02;;
47659;SDS011;33403;43.608;1.458;2022-12-07T02:12:38;24.65;;;16.27;;
47659;SDS011;33403;43.608;1.458;2022-12-07T02:15:04;27.57;;;17.00;;
47659;SDS011;33403;43.608;1.458;2022-12-07T02:17:32;26.77;;;17.42;;
47659;SDS011;33403;43.608;1.458;2022-12-07T02:20:22;26.98;;;17.83;;
47659;SDS011;33403;43.608;1.458;2022-12-07T02:23:13;28.83;;;17.33;;
47659;SDS011;33403;43.608;1.458;2022-12-07T02:25:58;26.57;;;17.53;;
47659;SDS011;33403;43.608;1.458;2022-12-07T02:28:33;28.60;;;17.73;;
47659;SDS011;33403;43.608;1.458;2022-12-07T02:31:05;28.58;;;17.83;;
47659;SDS011;33403;43.608;1.458;2022-12-07T02:33:36;25.85;;;17.02;;
47659;SDS011;33403;43.608;1.458;2022-12-07T02:36:04;27.08;;;17.60;;
47659;SDS011;33403;43.608;1.458;2022-12-07T02:38:45;27.98;;;18.55;;
47659;SDS011;33403;43.608;1.458;2022-12-07T02:41:15;28.60;;;18.30;;
47659;SDS011;33403;43.608;1.458;2022-12-07T02:43:47;28.73;;;18.23;;
47659;SDS011;33403;43.608;1.458;2022-12-07T02:46:20;29.57;;;19.20;;
47659;SDS011;33403;43.608;1.458;2022-12-07T02:48:47;30.17;;;19.20;;
47659;SDS011;33403;43.608;1.458;2022-12-07T02:51:14;28.53;;;17.90;;
47659;SDS011;33403;43.608;1.458;2022-12-07T02:53:41;30.50;;;19.23;;
47659;SDS011;33403;43.608;1.458;2022-12-07T03:03:37;28.40;;;19.43;;
47659;SDS011;33403;43.608;1.458;2022-12-07T03:06:27;33.00;;;21.33;;
47659;SDS011;33403;43.608;1.458;2022-12-07T03:11:47;31.77;;;20.10;;
47659;SDS011;33403;43.608;1.458;2022-12-07T03:14:19;33.20;;;20.97;;
47659;SDS011;33403;43.608;1.458;2022-12-07T03:16:52;32.77;;;21.27;;
47659;SDS011;33403;43.608;1.458;2022-12-07T03:19:20;31.83;;;20.27;;
47659;SDS011;33403;43.608;1.458;2022-12-07T03:21:49;30.52;;;21.58;;
47659;SDS011;33403;43.608;1.458;2022-12-07T03:24:21;36.63;;;22.27;;
47659;SDS011;33403;43.608;1.458;2022-12-07T03:26:48;34.70;;;22.63;;
47659;SDS011;33403;43.608;1.458;2022-12-07T03:29:25;34.27;;;21.63;;
47659;SDS011;33403;43.608;1.458;2022-12-07T03:31:58;32.35;;;20.95;;
47659;SDS011;33403;43.608;1.458;2022-12-07T03:34:29;33.33;;;22.05;;
47659;SDS011;33403;43.608;1.458;2022-12-07T03:36:58;35.38;;;22.33;;
47659;SDS011;33403;43.608;1.458;2022-12-07T03:41:52;34.85;;;22.83;;
47659;SDS011;33403;43.608;1.458;2022-12-07T03:44:19;38.47;;;24.67;;
47659;SDS011;33403;43.608;1.458;2022-12-07T03:46:50;38.45;;;23.85;;
47659;SDS011;33403;43.608;1.458;2022-12-07T03:54:27;34.83;;;22.85;;
47659;SDS011;33403;43.608;1.458;2022-12-07T03:56:54;35.20;;;22.85;;
47659;SDS011;33403;43.608;1.458;2022-12-07T03:59:20;39.80;;;24.87;;
47659;SDS011;33403;43.608;1.458;2022-12-07T04:01:51;37.17;;;24.37;;
47659;SDS011;33403;43.608;1.458;2022-12-07T04:04:18;38.67;;;24.33;;
47659;SDS011;33403;43.608;1.458;2022-12-07T04:06:44;37.97;;;24.65;;
47659;SDS011;33403;43.608;1.458;2022-12-07T04:09:10;39.28;;;25.13;;
47659;SDS011;33403;43.608;1.458;2022-12-07T04:11:36;36.30;;;24.10;;
47659;SDS011;33403;43.608;1.458;2022-12-07T04:14:02;37.78;;;24.70;;
47659;SDS011;33403;43.608;1.458;2022-12-07T04:16:50;40.08;;;25.30;;
47659;SDS011;33403;43.608;1.458;2022-12-07T04:19:18;40.80;;;26.07;;
47659;SDS011;33403;43.608;1.458;2022-12-07T04:21:44;40.90;;;26.53;;
47659;SDS011;33403;43.608;1.458;2022-12-07T04:24:11;40.27;;;26.53;;
47659;SDS011;33403;43.608;1.458;2022-12-07T04:26:38;42.40;;;27.05;;
47659;SDS011;33403;43.608;1.458;2022-12-07T04:29:04;41.92;;;26.08;;
47659;SDS011;33403;43.608;1.458;2022-12-07T04:31:30;42.40;;;27.40;;
47659;SDS011;33403;43.608;1.458;2022-12-07T04:33:56;44.77;;;26.60;;
47659;SDS011;33403;43.608;1.458;2022-12-07T04:36:22;46.27;;;27.87;;
47659;SDS011;33403;43.608;1.458;2022-12-07T04:38:48;42.50;;;27.63;;
47659;SDS011;33403;43.608;1.458;2022-12-07T04:41:14;43.08;;;27.35;;
47659;SDS011;33403;43.608;1.458;2022-12-07T04:43:40;43.03;;;27.25;;
47659;SDS011;33403;43.608;1.458;2022-12-07T04:46:06;46.35;;;28.30;;
47659;SDS011;33403;43.608;1.458;2022-12-07T04:48:32;46.03;;;28.73;;
47659;SDS011;33403;43.608;1.458;2022-12-07T04:50:58;47.40;;;29.55;;
47659;SDS011;33403;43.608;1.458;2022-12-07T04:53:24;43.17;;;28.65;;
47659;SDS011;33403;43.608;1.458;2022-12-07T04:55:50;43.75;;;28.50;;
47659;SDS011;33403;43.608;1.458;2022-12-07T04:58:16;44.05;;;28.17;;
47659;SDS011;33403;43.608;1.458;2022-12-07T05:00:42;43.95;;;28.08;;
47659;SDS011;33403;43.608;1.458;2022-12-07T05:03:08;46.90;;;28.73;;
47659;SDS011;33403;43.608;1.458;2022-12-07T05:05:34;43.70;;;27.70;;
47659;SDS011;33403;43.608;1.458;2022-12-07T05:08:00;47.90;;;29.63;;
47659;SDS011;33403;43.608;1.458;2022-12-07T05:10:26;42.33;;;27.63;;
47659;SDS011;33403;43.608;1.458;2022-12-07T05:12:52;44.33;;;29.00;;
47659;SDS011;33403;43.608;1.458;2022-12-07T05:15:18;47.22;;;28.88;;
47659;SDS011;33403;43.608;1.458;2022-12-07T05:17:44;46.58;;;29.17;;
47659;SDS011;33403;43.608;1.458;2022-12-07T05:20:10;44.45;;;29.10;;
47659;SDS011;33403;43.608;1.458;2022-12-07T05:22:36;41.65;;;27.77;;
47659;SDS011;33403;43.608;1.458;2022-12-07T05:25:02;46.42;;;29.77;;
47659;SDS011;33403;43.608;1.458;2022-12-07T05:27:28;41.58;;;27.92;;
47659;SDS011;33403;43.608;1.458;2022-12-07T05:29:54;45.40;;;30.27;;
47659;SDS011;33403;43.608;1.458;2022-12-07T05:32:20;47.72;;;30.83;;
47659;SDS011;33403;43.608;1.458;2022-12-07T05:34:46;48.53;;;29.93;;
47659;SDS011;33403;43.608;1.458;2022-12-07T05:37:12;51.90;;;31.33;;
47659;SDS011;33403;43.608;1.458;2022-12-07T05:39:38;46.60;;;31.00;;
47659;SDS011;33403;43.608;1.458;2022-12-07T05:42:08;48.57;;;30.20;;
47659;SDS011;33403;43.608;1.458;2022-12-07T05:44:40;49.40;;;31.97;;
47659;SDS011;33403;43.608;1.458;2022-12-07T05:47:06;48.20;;;31.45;;
47659;SDS011;33403;43.608;1.458;2022-12-07T05:49:33;50.47;;;30.40;;
47659;SDS011;33403;43.608;1.458;2022-12-07T05:51:59;49.40;;;31.10;;
47659;SDS011;33403;43.608;1.458;2022-12-07T05:54:25;48.20;;;30.57;;
47659;SDS011;33403;43.608;1.458;2022-12-07T05:56:51;44.50;;;30.50;;
47659;SDS011;33403;43.608;1.458;2022-12-07T05:59:17;46.92;;;29.67;;
47659;SDS011;33403;43.608;1.458;2022-12-07T06:04:16;46.17;;;29.80;;
47659;SDS011;33403;43.608;1.458;2022-12-07T06:06:42;48.55;;;30.83;;
47659;SDS011;33403;43.608;1.458;2022-12-07T06:09:08;47.03;;;28.83;;
47659;SDS011;33403;43.608;1.458;2022-12-07T06:11:34;44.17;;;28.47;;
47659;SDS011;33403;43.608;1.458;2022-12-07T06:14:18;47.60;;;28.65;;
47659;SDS011;33403;43.608;1.458;2022-12-07T06:16:44;44.17;;;28.50;;
47659;SDS011;33403;43.608;1.458;2022-12-07T06:19:11;46.00;;;29.25;;
47659;SDS011;33403;43.608;1.458;2022-12-07T06:21:37;45.23;;;29.23;;
47659;SDS011;33403;43.608;1.458;2022-12-07T06:24:03;45.05;;;30.42;;
47659;SDS011;33403;43.608;1.458;2022-12-07T06:26:29;43.27;;;29.20;;
47659;SDS011;33403;43.608;1.458;2022-12-07T06:28:55;46.53;;;29.87;;
47659;SDS011;33403;43.608;1.458;2022-12-07T06:31:21;45.63;;;29.70;;
47659;SDS011;33403;43.608;1.458;2022-12-07T06:33:47;46.77;;;29.53;;
47659;SDS011;33403;43.608;1.458;2022-12-07T06:36:13;45.63;;;29.13;;
47659;SDS011;33403;43.608;1.458;2022-12-07T06:38:39;48.90;;;30.02;;
47659;SDS011;33403;43.608;1.458;2022-12-07T06:41:06;50.53;;;29.90;;
47659;SDS011;33403;43.608;1.458;2022-12-07T06:43:32;47.50;;;29.87;;
47659;SDS011;33403;43.608;1.458;2022-12-07T06:45:58;45.87;;;29.93;;
47659;SDS011;33403;43.608;1.458;2022-12-07T06:48:24;47.13;;;30.30;;
47659;SDS011;33403;43.608;1.458;2022-12-07T06:50:50;45.35;;;28.52;;
47659;SDS011;33403;43.608;1.458;2022-12-07T06:53:16;45.63;;;29.15;;
47659;SDS011;33403;43.608;1.458;2022-12-07T06:55:42;44.35;;;28.45;;
47659;SDS011;33403;43.608;1.458;2022-12-07T06:58:08;45.85;;;29.65;;
47659;SDS011;33403;43.608;1.458;2022-12-07T07:00:34;46.03;;;28.50;;
47659;SDS011;33403;43.608;1.458;2022-12-07T07:03:01;42.15;;;28.02;;
47659;SDS011;33403;43.608;1.458;2022-12-07T07:05:27;42.20;;;27.02;;
47659;SDS011;33403;43.608;1.458;2022-12-07T07:07:53;47.40;;;27.60;;
47659;SDS011;33403;43.608;1.458;2022-12-07T07:10:19;42.10;;;28.17;;
47659;SDS011;33403;43.608;1.458;2022-12-07T07:12:45;41.87;;;27.87;;
47659;SDS011;33403;43.608;1.458;2022-12-07T07:15:11;46.30;;;28.83;;
47659;SDS011;33403;43.608;1.458;2022-12-07T07:17:37;40.07;;;27.40;;
47659;SDS011;33403;43.608;1.458;2022-12-07T07:20:03;45.60;;;28.13;;
47659;SDS011;33403;43.608;1.458;2022-12-07T07:22:30;43.27;;;28.33;;
47659;SDS011;33403;43.608;1.458;2022-12-07T07:24:56;41.33;;;27.60;;
47659;SDS011;33403;43.608;1.458;2022-12-07T07:27:22;44.35;;;28.15;;
47659;SDS011;33403;43.608;1.458;2022-12-07T07:29:48;42.20;;;26.25;;
47659;SDS011;33403;43.608;1.458;2022-12-07T07:32:14;46.08;;;27.27;;
47659;SDS011;33403;43.608;1.458;2022-12-07T07:34:40;38.57;;;24.83;;
47659;SDS011;33403;43.608;1.458;2022-12-07T07:37:06;43.03;;;27.38;;
47659;SDS011;33403;43.608;1.458;2022-12-07T07:39:32;41.67;;;25.75;;
47659;SDS011;33403;43.608;1.458;2022-12-07T07:41:58;42.93;;;26.17;;
47659;SDS011;33403;43.608;1.458;2022-12-07T07:44:24;40.93;;;26.60;;
47659;SDS011;33403;43.608;1.458;2022-12-07T07:46:50;41.10;;;26.10;;
47659;SDS011;33403;43.608;1.458;2022-12-07T07:49:16;41.13;;;26.53;;
47659;SDS011;33403;43.608;1.458;2022-12-07T07:51:42;39.88;;;26.23;;
47659;SDS011;33403;43.608;1.458;2022-12-07T07:54:08;42.83;;;26.07;;
47659;SDS011;33403;43.608;1.458;2022-12-07T07:56:34;45.33;;;27.17;;
47659;SDS011;33403;43.608;1.458;2022-12-07T07:59:00;41.33;;;26.03;;
47659;SDS011;33403;43.608;1.458;2022-12-07T08:01:26;45.05;;;27.23;;
47659;SDS011;33403;43.608;1.458;2022-12-07T08:03:52;40.37;;;25.87;;
47659;SDS011;33403;43.608;1.458;2022-12-07T08:06:18;44.40;;;26.97;;
47659;SDS011;33403;43.608;1.458;2022-12-07T08:08:44;40.20;;;25.60;;
47659;SDS011;33403;43.608;1.458;2022-12-07T08:11:10;41.50;;;25.40;;
47659;SDS011;33403;43.608;1.458;2022-12-07T08:13:36;41.83;;;26.43;;
47659;SDS011;33403;43.608;1.458;2022-12-07T08:16:06;42.93;;;26.00;;
47659;SDS011;33403;43.608;1.458;2022-12-07T08:18:37;44.57;;;28.50;;
47659;SDS011;33403;43.608;1.458;2022-12-07T08:21:03;43.20;;;27.17;;
47659;SDS011;33403;43.608;1.458;2022-12-07T08:23:30;46.97;;;28.53;;
47659;SDS011;33403;43.608;1.458;2022-12-07T08:26:03;48.22;;;28.50;;
47659;SDS011;33403;43.608;1.458;2022-12-07T08:28:29;43.10;;;27.55;;
47659;SDS011;33403;43.608;1.458;2022-12-07T08:30:59;40.23;;;27.07;;
47659;SDS011;33403;43.608;1.458;2022-12-07T08:33:25;40.95;;;26.77;;
47659;SDS011;33403;43.608;1.458;2022-12-07T08:35:51;37.03;;;24.27;;
47659;SDS011;33403;43.608;1.458;2022-12-07T08:38:17;39.08;;;26.05;;
47659;SDS011;33403;43.608;1.458;2022-12-07T08:40:43;36.28;;;24.65;;
47659;SDS011;33403;43.608;1.458;2022-12-07T08:43:09;39.45;;;24.30;;
47659;SDS011;33403;43.608;1.458;2022-12-07T08:45:35;39.78;;;25.85;;
47659;SDS011;33403;43.608;1.458;2022-12-07T08:48:03;39.53;;;25.38;;
47659;SDS011;33403;43.608;1.458;2022-12-07T08:50:31;34.65;;;23.83;;
47659;SDS011;33403;43.608;1.458;2022-12-07T08:52:58;39.38;;;24.42;;
47659;SDS011;33403;43.608;1.458;2022-12-07T08:55:24;38.53;;;23.50;;
47659;SDS011;33403;43.608;1.458;2022-12-07T08:57:50;36.80;;;24.40;;
47659;SDS011;33403;43.608;1.458;2022-12-07T09:00:17;32.30;;;22.38;;
47659;SDS011;33403;43.608;1.458;2022-12-07T09:02:43;32.72;;;22.10;;
47659;SDS011;33403;43.608;1.458;2022-12-07T09:05:10;30.85;;;20.88;;
47659;SDS011;33403;43.608;1.458;2022-12-07T09:07:36;31.73;;;21.02;;
47659;SDS011;33403;43.608;1.458;2022-12-07T09:10:03;33.42;;;21.20;;
47659;SDS011;33403;43.608;1.458;2022-12-07T09:12:29;33.92;;;20.95;;
47659;SDS011;33403;43.608;1.458;2022-12-07T09:14:55;32.47;;;19.55;;
47659;SDS011;33403;43.608;1.458;2022-12-07T09:17:22;31.85;;;20.40;;
47659;SDS011;33403;43.608;1.458;2022-12-07T09:19:48;40.88;;;24.00;;
47659;SDS011;33403;43.608;1.458;2022-12-07T09:22:14;34.15;;;21.73;;
47659;SDS011;33403;43.608;1.458;2022-12-07T09:24:40;30.45;;;20.48;;
47659;SDS011;33403;43.608;1.458;2022-12-07T09:27:06;31.40;;;21.30;;
47659;SDS011;33403;43.608;1.458;2022-12-07T09:29:32;29.38;;;20.00;;
47659;SDS011;33403;43.608;1.458;2022-12-07T09:31:58;32.17;;;21.02;;
47659;SDS011;33403;43.608;1.458;2022-12-07T09:34:24;31.02;;;20.15;;
47659;SDS011;33403;43.608;1.458;2022-12-07T09:36:51;27.95;;;19.60;;
47659;SDS011;33403;43.608;1.458;2022-12-07T09:39:17;31.88;;;19.52;;
47659;SDS011;33403;43.608;1.458;2022-12-07T09:41:44;29.90;;;19.33;;
47659;SDS011;33403;43.608;1.458;2022-12-07T09:44:32;27.65;;;19.17;;
47659;SDS011;33403;43.608;1.458;2022-12-07T09:46:57;29.70;;;19.90;;
47659;SDS011;33403;43.608;1.458;2022-12-07T09:49:24;27.30;;;18.50;;
47659;SDS011;33403;43.608;1.458;2022-12-07T09:54:27;26.45;;;18.55;;
47659;SDS011;33403;43.608;1.458;2022-12-07T09:56:54;30.65;;;20.05;;
47659;SDS011;33403;43.608;1.458;2022-12-07T09:59:20;28.92;;;19.77;;
47659;SDS011;33403;43.608;1.458;2022-12-07T10:01:48;27.52;;;20.00;;
47659;SDS011;33403;43.608;1.458;2022-12-07T10:04:24;29.70;;;19.85;;
47659;SDS011;33403;43.608;1.458;2022-12-07T10:06:51;27.15;;;18.30;;
47659;SDS011;33403;43.608;1.458;2022-12-07T10:09:19;25.23;;;17.48;;
47659;SDS011;33403;43.608;1.458;2022-12-07T10:12:01;26.02;;;17.27;;
47659;SDS011;33403;43.608;1.458;2022-12-07T10:14:29;22.38;;;16.05;;
47659;SDS011;33403;43.608;1.458;2022-12-07T10:16:56;21.85;;;15.80;;
47659;SDS011;33403;43.608;1.458;2022-12-07T10:19:23;23.73;;;16.60;;
47659;SDS011;33403;43.608;1.458;2022-12-07T10:24:28;20.17;;;14.38;;
47659;SDS011;33403;43.608;1.458;2022-12-07T10:26:54;21.67;;;14.60;;
47659;SDS011;33403;43.608;1.458;2022-12-07T10:29:21;21.65;;;14.40;;
47659;SDS011;33403;43.608;1.458;2022-12-07T10:36:48;24.10;;;15.50;;
47659;SDS011;33403;43.608;1.458;2022-12-07T10:39:16;23.75;;;15.65;;
47659;SDS011;33403;43.608;1.458;2022-12-07T10:41:53;21.23;;;15.38;;
47659;SDS011;33403;43.608;1.458;2022-12-07T10:44:21;25.02;;;16.80;;
47659;SDS011;33403;43.608;1.458;2022-12-07T10:46:53;24.15;;;16.58;;
47659;SDS011;33403;43.608;1.458;2022-12-07T10:49:37;21.67;;;15.52;;
47659;SDS011;33403;43.608;1.458;2022-12-07T10:52:09;20.75;;;14.48;;
47659;SDS011;33403;43.608;1.458;2022-12-07T10:54:52;18.15;;;12.38;;
47659;SDS011;33403;43.608;1.458;2022-12-07T11:02:40;14.55;;;10.88;;
47659;SDS011;33403;43.608;1.458;2022-12-07T11:05:25;15.65;;;11.02;;
47659;SDS011;33403;43.608;1.458;2022-12-07T11:08:09;30.55;;;16.27;;
47659;SDS011;33403;43.608;1.458;2022-12-07T11:18:26;18.25;;;12.52;;
47659;SDS011;33403;43.608;1.458;2022-12-07T11:21:00;16.50;;;11.40;;
47659;SDS011;33403;43.608;1.458;2022-12-07T11:29:18;24.80;;;14.80;;
47659;SDS011;33403;43.608;1.458;2022-12-07T11:34:24;17.23;;;11.52;;
47659;SDS011;33403;43.608;1.458;2022-12-07T11:36:53;15.18;;;11.25;;
47659;SDS011;33403;43.608;1.458;2022-12-07T11:39:36;18.25;;;12.25;;
47659;SDS011;33403;43.608;1.458;2022-12-07T11:42:26;15.73;;;11.50;;
47659;SDS011;33403;43.608;1.458;2022-12-07T11:47:41;18.88;;;12.65;;
47659;SDS011;33403;43.608;1.458;2022-12-07T11:52:47;23.20;;;14.98;;
47659;SDS011;33403;43.608;1.458;2022-12-07T11:58:03;19.83;;;12.73;;
47659;SDS011;33403;43.608;1.458;2022-12-07T12:00:30;17.10;;;12.02;;
47659;SDS011;33403;43.608;1.458;2022-12-07T12:03:03;16.95;;;11.85;;
47659;SDS011;33403;43.608;1.458;2022-12-07T12:05:30;18.05;;;12.20;;
47659;SDS011;33403;43.608;1.458;2022-12-07T12:21:02;15.27;;;10.35;;
47659;SDS011;33403;43.608;1.458;2022-12-07T12:23:40;17.35;;;12.13;;
47659;SDS011;33403;43.608;1.458;2022-12-07T12:26:07;18.10;;;11.65;;
47659;SDS011;33403;43.608;1.458;2022-12-07T12:46:58;18.02;;;12.20;;
47659;SDS011;33403;43.608;1.458;2022-12-07T12:51:51;17.42;;;11.40;;
47659;SDS011;33403;43.608;1.458;2022-12-07T12:59:31;14.95;;;11.05;;
47659;SDS011;33403;43.608;1.458;2022-12-07T13:04:39;15.88;;;10.50;;
47659;SDS011;33403;43.608;1.458;2022-12-07T13:07:13;15.20;;;10.30;;
47659;SDS011;33403;43.608;1.458;2022-12-07T13:09:59;15.02;;;10.00;;
47659;SDS011;33403;43.608;1.458;2022-12-07T13:12:25;14.38;;;9.95;;
47659;SDS011;33403;43.608;1.458;2022-12-07T13:14:52;15.40;;;9.90;;
47659;SDS011;33403;43.608;1.458;2022-12-07T13:25:07;13.48;;;9.00;;
47659;SDS011;33403;43.608;1.458;2022-12-07T13:27:36;11.98;;;8.48;;
47659;SDS011;33403;43.608;1.458;2022-12-07T13:30:06;11.65;;;8.57;;
47659;SDS011;33403;43.608;1.458;2022-12-07T13:32:33;14.32;;;8.40;;
47659;SDS011;33403;43.608;1.458;2022-12-07T13:34:59;11.13;;;7.88;;
47659;SDS011;33403;43.608;1.458;2022-12-07T13:37:27;9.93;;;7.57;;
47659;SDS011;33403;43.608;1.458;2022-12-07T13:39:55;10.75;;;6.78;;
47659;SDS011;33403;43.608;1.458;2022-12-07T13:44:47;10.20;;;7.07;;
47659;SDS011;33403;43.608;1.458;2022-12-07T13:47:18;9.85;;;6.63;;
47659;SDS011;33403;43.608;1.458;2022-12-07T13:49:48;10.32;;;6.82;;
47659;SDS011;33403;43.608;1.458;2022-12-07T13:52:18;10.30;;;6.60;;
47659;SDS011;33403;43.608;1.458;2022-12-07T13:54:48;9.90;;;6.50;;
47659;SDS011;33403;43.608;1.458;2022-12-07T13:57:17;9.15;;;6.25;;
47659;SDS011;33403;43.608;1.458;2022-12-07T13:59:43;9.85;;;6.70;;
47659;SDS011;33403;43.608;1.458;2022-12-07T14:02:17;9.95;;;6.60;;
47659;SDS011;33403;43.608;1.458;2022-12-07T14:04:45;10.18;;;7.10;;
47659;SDS011;33403;43.608;1.458;2022-12-07T14:07:18;12.80;;;8.00;;
47659;SDS011;33403;43.608;1.458;2022-12-07T14:09:53;11.13;;;7.85;;
47659;SDS011;33403;43.608;1.458;2022-12-07T14:12:19;11.63;;;7.40;;
47659;SDS011;33403;43.608;1.458;2022-12-07T14:14:48;12.32;;;7.57;;
47659;SDS011;33403;43.608;1.458;2022-12-07T14:17:17;10.00;;;7.50;;
47659;SDS011;33403;43.608;1.458;2022-12-07T14:22:20;12.00;;;7.43;;
47659;SDS011;33403;43.608;1.458;2022-12-07T14:24:47;11.20;;;7.90;;
47659;SDS011;33403;43.608;1.458;2022-12-07T14:27:17;13.27;;;8.88;;
47659;SDS011;33403;43.608;1.458;2022-12-07T14:29:43;11.63;;;8.88;;
47659;SDS011;33403;43.608;1.458;2022-12-07T14:32:17;15.63;;;10.10;;
47659;SDS011;33403;43.608;1.458;2022-12-07T14:34:58;13.80;;;9.27;;
47659;SDS011;33403;43.608;1.458;2022-12-07T14:37:24;15.35;;;10.00;;
47659;SDS011;33403;43.608;1.458;2022-12-07T14:39:50;14.07;;;9.82;;
47659;SDS011;33403;43.608;1.458;2022-12-07T14:42:16;15.32;;;11.05;;
47659;SDS011;33403;43.608;1.458;2022-12-07T14:44:43;14.00;;;10.05;;
47659;SDS011;33403;43.608;1.458;2022-12-07T14:47:09;15.15;;;10.30;;
47659;SDS011;33403;43.608;1.458;2022-12-07T14:49:36;15.73;;;10.70;;
47659;SDS011;33403;43.608;1.458;2022-12-07T14:52:02;14.05;;;9.93;;
47659;SDS011;33403;43.608;1.458;2022-12-07T14:54:30;15.85;;;9.52;;
47659;SDS011;33403;43.608;1.458;2022-12-07T14:56:57;13.52;;;9.90;;
47659;SDS011;33403;43.608;1.458;2022-12-07T14:59:23;14.00;;;9.93;;
47659;SDS011;33403;43.608;1.458;2022-12-07T15:01:49;15.40;;;10.07;;
47659;SDS011;33403;43.608;1.458;2022-12-07T15:04:15;13.20;;;9.50;;
47659;SDS011;33403;43.608;1.458;2022-12-07T15:06:41;14.70;;;10.45;;
47659;SDS011;33403;43.608;1.458;2022-12-07T15:09:09;14.30;;;9.43;;
47659;SDS011;33403;43.608;1.458;2022-12-07T15:11:36;11.80;;;8.10;;
47659;SDS011;33403;43.608;1.458;2022-12-07T15:14:02;14.32;;;9.13;;
47659;SDS011;33403;43.608;1.458;2022-12-07T15:16:35;10.80;;;7.95;;
47659;SDS011;33403;43.608;1.458;2022-12-07T15:19:02;11.82;;;7.95;;
47659;SDS011;33403;43.608;1.458;2022-12-07T15:21:28;10.98;;;7.50;;
47659;SDS011;33403;43.608;1.458;2022-12-07T15:23:54;9.90;;;7.57;;
47659;SDS011;33403;43.608;1.458;2022-12-07T15:26:20;10.35;;;7.53;;
47659;SDS011;33403;43.608;1.458;2022-12-07T15:28:46;12.07;;;7.63;;
47659;SDS011;33403;43.608;1.458;2022-12-07T15:31:12;13.40;;;7.97;;
47659;SDS011;33403;43.608;1.458;2022-12-07T15:33:38;12.20;;;8.13;;
47659;SDS011;33403;43.608;1.458;2022-12-07T15:36:05;12.65;;;7.75;;
47659;SDS011;33403;43.608;1.458;2022-12-07T15:38:31;11.75;;;7.85;;
47659;SDS011;33403;43.608;1.458;2022-12-07T15:40:57;11.70;;;7.82;;
47659;SDS011;33403;43.608;1.458;2022-12-07T15:43:23;12.05;;;7.95;;
47659;SDS011;33403;43.608;1.458;2022-12-07T15:46:08;10.95;;;7.88;;
47659;SDS011;33403;43.608;1.458;2022-12-07T15:48:34;12.48;;;7.68;;
47659;SDS011;33403;43.608;1.458;2022-12-07T15:51:04;12.27;;;8.38;;
47659;SDS011;33403;43.608;1.458;2022-12-07T15:53:30;13.00;;;8.13;;
47659;SDS011;33403;43.608;1.458;2022-12-07T15:55:56;10.73;;;8.40;;
47659;SDS011;33403;43.608;1.458;2022-12-07T15:58:22;13.32;;;8.65;;
47659;SDS011;33403;43.608;1.458;2022-12-07T16:00:48;13.32;;;8.35;;
47659;SDS011;33403;43.608;1.458;2022-12-07T16:03:14;10.52;;;7.43;;
47659;SDS011;33403;43.608;1.458;2022-12-07T16:05:40;10.57;;;8.13;;
47659;SDS011;33403;43.608;1.458;2022-12-07T16:08:06;11.95;;;7.68;;
47659;SDS011;33403;43.608;1.458;2022-12-07T16:10:32;10.63;;;8.00;;
47659;SDS011;33403;43.608;1.458;2022-12-07T16:12:58;11.10;;;8.07;;
47659;SDS011;33403;43.608;1.458;2022-12-07T16:15:24;12.48;;;8.60;;
47659;SDS011;33403;43.608;1.458;2022-12-07T16:17:51;11.68;;;7.88;;
47659;SDS011;33403;43.608;1.458;2022-12-07T16:20:18;11.35;;;7.82;;
47659;SDS011;33403;43.608;1.458;2022-12-07T16:22:44;11.45;;;7.35;;
47659;SDS011;33403;43.608;1.458;2022-12-07T16:25:10;10.90;;;7.68;;
47659;SDS011;33403;43.608;1.458;2022-12-07T16:27:36;10.13;;;7.60;;
47659;SDS011;33403;43.608;1.458;2022-12-07T16:30:02;11.98;;;8.18;;